Time;durP1;ratioP1;P1;durP2;ratioP2;P2;SDS_P1;SDS_P2;PMS_P1;PMS_P2;Temp;Humidity;BMP_temperature;BMP_pressure;BME280_temperature;BME280_humidity;BME280_pressure;Samples;Min_cycle;Max_cycle;Signal;HPM_P1;HPM_P2
2022/11/03 00:01:06;;;;;;;;;;;4.30;99.90;;;;;;4947147;28;19914;-79
2022/11/03 00:03:32;;;;;;;;;;;4.30;99.90;;;;;;4951069;28;20013;-79
2022/11/03 00:06:04;;;;;;;;;;;4.40;99.90;;;;;;4959314;28;20356;-79
2022/11/03 00:08:30;;;;;;;;;;;4.40;99.90;;;;;;4960983;28;19910;-80
2022/11/03 00:11:02;;;;;;;;;;;4.30;99.90;;;;;;4942073;28;19946;-79
2022/11/03 00:13:28;;;;;;;;;;;4.40;99.90;;;;;;4956120;28;19917;-80
2022/11/03 00:15:53;;;;;;;;;;;4.40;99.90;;;;;;4953041;28;19930;-80
2022/11/03 00:18:19;;;;;;;;;;;4.40;99.90;;;;;;4958301;28;19973;-80
2022/11/03 00:20:44;;;;;;;;;;;4.40;99.90;;;;;;4953840;28;19925;-79
2022/11/03 00:23:09;;;;;;;;;;;4.30;99.90;;;;;;4959472;28;20626;-80
2022/11/03 00:25:35;;;;;;;;;;;4.30;99.90;;;;;;4950788;29;19914;-80
2022/11/03 00:28:00;;;;;;;;;;;4.30;99.90;;;;;;4957288;28;20021;-79
2022/11/03 00:30:26;;;;;;;;;;;4.30;99.90;;;;;;4950862;28;20369;-80
2022/11/03 00:32:51;;;;;;;;;;;4.20;99.90;;;;;;4953622;29;19906;-79
2022/11/03 00:35:16;;;;;;;;;;;4.30;99.90;;;;;;4943209;28;19954;-79
2022/11/03 00:37:42;;;;;;;;;;;4.30;99.90;;;;;;4950654;28;19915;-79
2022/11/03 00:40:09;;;;;;;;;;;4.20;99.90;;;;;;4956540;28;19910;-79
2022/11/03 00:42:36;;;;;;;;;;;4.20;99.90;;;;;;4950667;28;19914;-80
2022/11/03 00:45:01;;;;;;;;;;;4.20;99.90;;;;;;4943487;28;19915;-80
2022/11/03 00:47:27;;;;;;;;;;;4.20;99.90;;;;;;4959503;28;19975;-79
2022/11/03 00:49:52;;;;;;;;;;;4.20;99.90;;;;;;4954167;28;19911;-79
2022/11/03 00:52:18;;;;;;;;;;;4.10;99.90;;;;;;4950184;28;19917;-79
2022/11/03 00:54:43;;;;;;;;;;;4.20;99.90;;;;;;4950741;28;19919;-79
2022/11/03 00:57:08;;;;;;;;;;;4.10;99.90;;;;;;4947577;29;20378;-79
2022/11/03 00:59:34;;;;;;;;;;;4.00;99.90;;;;;;4950922;28;19966;-79
2022/11/03 01:01:59;;;;;;;;;;;3.90;99.90;;;;;;4952471;28;20809;-79
2022/11/03 01:07:08;;;;;;;;;;;3.90;99.90;;;;;;4948685;29;20443;-79
2022/11/03 01:09:35;;;;;;;;;;;4.00;99.90;;;;;;4951714;28;19911;-79
2022/11/03 01:12:06;;;;;;;;;;;3.90;99.90;;;;;;4952517;28;20477;-79
2022/11/03 01:14:36;;;;;;;;;;;3.90;99.90;;;;;;4938764;28;20606;-79
2022/11/03 01:17:12;;;;;;;;;;;3.80;99.90;;;;;;4953068;28;19910;-79
2022/11/03 01:19:38;;;;;;;;;;;3.90;99.90;;;;;;4954079;28;19910;-79
2022/11/03 01:22:03;;;;;;;;;;;3.80;99.90;;;;;;4953876;28;20285;-79
2022/11/03 01:24:29;;;;;;;;;;;3.80;99.90;;;;;;4952864;28;19910;-79
2022/11/03 01:26:54;;;;;;;;;;;3.80;99.90;;;;;;4955530;28;20353;-79
2022/11/03 01:29:20;;;;;;;;;;;3.80;99.90;;;;;;4954650;28;19941;-79
2022/11/03 01:31:45;;;;;;;;;;;3.80;99.90;;;;;;4951713;28;19922;-80
2022/11/03 01:34:12;;;;;;;;;;;3.80;99.90;;;;;;4954524;28;20750;-79
2022/11/03 01:36:38;;;;;;;;;;;3.80;99.90;;;;;;4949228;28;20273;-79
2022/11/03 01:39:03;;;;;;;;;;;3.90;99.90;;;;;;4952535;28;19917;-79
2022/11/03 01:41:29;;;;;;;;;;;3.80;99.90;;;;;;4958499;28;19914;-80
2022/11/03 01:44:22;;;;;;;;;;;3.80;99.90;;;;;;4949875;28;19910;-80
2022/11/03 01:46:53;;;;;;;;;;;3.80;99.90;;;;;;4953060;28;19915;-79
2022/11/03 01:49:31;;;;;;;;;;;3.70;99.90;;;;;;4941174;28;20294;-80
2022/11/03 01:51:59;;;;;;;;;;;3.80;99.90;;;;;;4943106;28;19910;-80
2022/11/03 01:54:26;;;;;;;;;;;3.70;99.90;;;;;;4950164;28;19910;-79
2022/11/03 01:56:52;;;;;;;;;;;3.80;99.90;;;;;;4948391;28;19917;-80
2022/11/03 01:59:19;;;;;;;;;;;3.80;99.90;;;;;;4950092;29;19965;-80
2022/11/03 02:01:45;;;;;;;;;;;3.80;99.90;;;;;;4960694;28;19922;-79
2022/11/03 02:04:14;;;;;;;;;;;3.80;99.90;;;;;;4955208;28;19978;-78
2022/11/03 02:06:39;;;;;;;;;;;3.80;99.90;;;;;;4956686;28;19921;-79
2022/11/03 02:09:06;;;;;;;;;;;3.70;99.90;;;;;;4946972;28;19911;-79
2022/11/03 02:14:16;;;;;;;;;;;3.70;99.90;;;;;;4949191;28;20014;-78
2022/11/03 02:16:54;;;;;;;;;;;3.70;99.90;;;;;;4952070;28;20045;-78
2022/11/03 02:19:26;;;;;;;;;;;3.80;99.90;;;;;;4946828;28;19907;-79
2022/11/03 02:21:51;;;;;;;;;;;3.80;99.90;;;;;;4953437;28;20359;-78
2022/11/03 02:24:26;;;;;;;;;;;3.80;99.90;;;;;;4950902;28;20001;-79
2022/11/03 02:26:54;;;;;;;;;;;4.10;99.90;;;;;;4948963;28;19933;-78
2022/11/03 02:29:19;;;;;;;;;;;4.20;99.90;;;;;;4940151;28;19910;-79
2022/11/03 02:31:49;;;;;;;;;;;4.50;99.90;;;;;;4945165;28;19937;-78
2022/11/03 02:34:18;;;;;;;;;;;4.60;99.90;;;;;;4950390;28;19914;-79
2022/11/03 02:36:47;;;;;;;;;;;4.80;99.90;;;;;;4959445;28;19910;-78
2022/11/03 02:39:31;;;;;;;;;;;5.20;99.90;;;;;;4969460;28;20412;-78
2022/11/03 02:41:58;;;;;;;;;;;5.30;99.90;;;;;;4958144;28;19915;-78
2022/11/03 02:44:24;;;;;;;;;;;5.30;99.90;;;;;;4953695;28;19914;-79
2022/11/03 02:46:53;;;;;;;;;;;5.40;99.90;;;;;;4953841;28;19915;-78
2022/11/03 02:49:18;;;;;;;;;;;5.50;99.90;;;;;;4951073;28;19910;-78
2022/11/03 02:51:44;;;;;;;;;;;5.60;99.90;;;;;;4953050;28;19910;-78
2022/11/03 02:54:22;;;;;;;;;;;5.70;99.90;;;;;;4952180;28;19910;-79
2022/11/03 02:56:49;;;;;;;;;;;5.90;99.90;;;;;;4954264;28;20363;-79
2022/11/03 02:59:18;;;;;;;;;;;5.90;99.90;;;;;;4950372;28;19989;-79
2022/11/03 03:01:47;;;;;;;;;;;5.90;99.90;;;;;;4949885;28;19962;-79
2022/11/03 03:04:18;;;;;;;;;;;6.00;99.90;;;;;;4952219;28;20006;-79
2022/11/03 03:06:53;;;;;;;;;;;6.20;99.90;;;;;;4940251;28;19914;-78
2022/11/03 03:09:21;;;;;;;;;;;6.10;99.90;;;;;;4959215;28;19916;-79
2022/11/03 03:11:47;;;;;;;;;;;6.20;99.90;;;;;;4948528;29;19910;-76
2022/11/03 03:14:17;;;;;;;;;;;6.20;99.90;;;;;;4956160;28;19973;-78
2022/11/03 03:16:49;;;;;;;;;;;6.30;99.90;;;;;;4959153;28;19917;-78
2022/11/03 03:19:43;;;;;;;;;;;6.30;99.90;;;;;;4951131;28;19914;-79
2022/11/03 03:22:15;;;;;;;;;;;6.30;99.90;;;;;;4952444;28;19933;-78
2022/11/03 03:24:46;;;;;;;;;;;6.30;99.90;;;;;;4938006;29;20504;-79
2022/11/03 03:27:13;;;;;;;;;;;6.30;99.90;;;;;;4948513;28;19921;-79
2022/11/03 03:29:45;;;;;;;;;;;6.10;99.90;;;;;;4952044;28;19997;-79
2022/11/03 03:32:13;;;;;;;;;;;6.10;99.90;;;;;;4952558;28;19910;-78
2022/11/03 03:34:40;;;;;;;;;;;6.20;99.90;;;;;;4948942;28;20037;-78
2022/11/03 03:37:06;;;;;;;;;;;6.10;99.90;;;;;;4957603;28;20341;-78
2022/11/03 03:39:34;;;;;;;;;;;6.20;99.90;;;;;;4954975;28;19910;-79
2022/11/03 03:42:00;;;;;;;;;;;6.30;99.90;;;;;;4948274;29;19918;-78
2022/11/03 03:44:26;;;;;;;;;;;6.30;99.90;;;;;;4949364;28;19911;-78
2022/11/03 03:46:56;;;;;;;;;;;6.30;99.90;;;;;;4950586;28;20005;-79
2022/11/03 03:49:21;;;;;;;;;;;6.20;99.90;;;;;;4951414;28;20335;-78
2022/11/03 03:51:47;;;;;;;;;;;6.00;99.90;;;;;;4952245;28;20010;-79
2022/11/03 03:54:13;;;;;;;;;;;5.90;99.90;;;;;;4959659;28;19950;-78
2022/11/03 03:56:44;;;;;;;;;;;5.90;99.90;;;;;;4954330;28;20008;-79
2022/11/03 03:59:09;;;;;;;;;;;5.90;99.90;;;;;;4954309;29;19910;-79
2022/11/03 04:01:35;;;;;;;;;;;5.70;99.90;;;;;;4952929;28;19921;-78
2022/11/03 04:04:00;;;;;;;;;;;5.80;99.90;;;;;;4950768;28;19915;-78
2022/11/03 04:06:25;;;;;;;;;;;5.70;99.90;;;;;;4943097;28;20341;-79
2022/11/03 04:08:57;;;;;;;;;;;5.60;99.90;;;;;;4954251;28;19970;-79
2022/11/03 04:22:20;;;;;;;;;;;5.20;99.90;;;;;;4937436;28;19969;-79
2022/11/03 04:24:47;;;;;;;;;;;5.20;99.90;;;;;;4950280;28;20290;-79
2022/11/03 04:27:25;;;;;;;;;;;5.10;99.90;;;;;;4946340;28;19959;-79
2022/11/03 04:29:51;;;;;;;;;;;5.10;99.90;;;;;;4953579;28;19921;-79
2022/11/03 04:32:17;;;;;;;;;;;4.90;99.90;;;;;;4955965;28;20281;-78
2022/11/03 04:34:46;;;;;;;;;;;4.90;99.90;;;;;;4951225;28;19925;-78
2022/11/03 04:37:11;;;;;;;;;;;4.70;99.90;;;;;;4964736;28;19968;-78
2022/11/03 04:39:37;;;;;;;;;;;4.70;99.90;;;;;;4949296;28;20001;-78
2022/11/03 04:42:14;;;;;;;;;;;4.60;99.90;;;;;;4953247;28;19919;-78
2022/11/03 04:44:40;;;;;;;;;;;4.70;99.90;;;;;;4934715;28;20397;-78
2022/11/03 04:47:12;;;;;;;;;;;4.70;99.90;;;;;;4958286;28;19910;-78
2022/11/03 04:49:37;;;;;;;;;;;4.70;99.90;;;;;;4966867;28;19941;-78
2022/11/03 04:52:07;;;;;;;;;;;4.80;99.90;;;;;;4950468;28;19969;-78
2022/11/03 04:54:32;;;;;;;;;;;4.70;99.90;;;;;;4934151;29;19923;-78
2022/11/03 04:56:58;;;;;;;;;;;4.60;99.90;;;;;;4948099;28;19911;-78
2022/11/03 04:59:24;;;;;;;;;;;4.60;99.90;;;;;;4961590;28;19966;-77
2022/11/03 05:01:49;;;;;;;;;;;4.60;99.90;;;;;;4964009;28;20652;-77
2022/11/03 05:04:17;;;;;;;;;;;4.80;99.90;;;;;;4967139;28;19933;-78
2022/11/03 05:06:46;;;;;;;;;;;4.80;99.90;;;;;;4949131;29;19911;-78
2022/11/03 05:09:14;;;;;;;;;;;4.70;99.90;;;;;;4952064;29;19922;-77
2022/11/03 05:11:46;;;;;;;;;;;4.80;99.90;;;;;;4954287;28;19910;-78
2022/11/03 05:14:14;;;;;;;;;;;4.90;99.90;;;;;;4952764;28;19958;-78
2022/11/03 05:16:39;;;;;;;;;;;4.80;99.90;;;;;;4957169;28;19918;-78
2022/11/03 05:19:10;;;;;;;;;;;4.80;99.90;;;;;;4948266;28;19910;-78
2022/11/03 05:21:36;;;;;;;;;;;4.70;99.90;;;;;;4935153;28;19970;-78
2022/11/03 05:24:02;;;;;;;;;;;4.70;99.90;;;;;;4936455;28;19914;-78
2022/11/03 05:26:33;;;;;;;;;;;4.70;99.90;;;;;;4949027;29;19910;-78
2022/11/03 05:29:02;;;;;;;;;;;4.70;99.90;;;;;;4947547;29;20354;-78
2022/11/03 05:31:29;;;;;;;;;;;4.80;99.90;;;;;;4941475;28;19919;-78
2022/11/03 05:33:56;;;;;;;;;;;4.70;99.90;;;;;;4950829;29;19927;-77
2022/11/03 05:36:23;;;;;;;;;;;4.60;99.90;;;;;;4952530;29;19917;-78
2022/11/03 05:38:48;;;;;;;;;;;4.80;99.90;;;;;;4946495;29;19910;-77
2022/11/03 05:41:18;;;;;;;;;;;5.10;99.90;;;;;;4933437;29;19962;-78
2022/11/03 05:43:43;;;;;;;;;;;5.20;99.90;;;;;;4933124;29;20300;-78
2022/11/03 05:46:10;;;;;;;;;;;5.20;99.90;;;;;;4948833;29;20127;-78
2022/11/03 05:48:37;;;;;;;;;;;5.30;99.90;;;;;;4951378;29;19910;-78
2022/11/03 05:51:12;;;;;;;;;;;5.40;99.90;;;;;;4940021;28;19910;-78
2022/11/03 05:53:42;;;;;;;;;;;5.40;99.90;;;;;;4939782;29;19906;-78
2022/11/03 05:56:10;;;;;;;;;;;5.50;99.90;;;;;;4937805;28;19911;-78
2022/11/03 05:58:37;;;;;;;;;;;5.50;99.90;;;;;;4932997;29;19930;-79
2022/11/03 06:01:03;;;;;;;;;;;5.40;99.90;;;;;;4932279;29;19917;-78
2022/11/03 06:03:30;;;;;;;;;;;5.40;99.90;;;;;;4950723;29;19906;-79
2022/11/03 06:05:57;;;;;;;;;;;5.40;99.90;;;;;;4951027;28;20008;-78
2022/11/03 06:08:29;;;;;;;;;;;5.30;99.90;;;;;;4951069;29;19914;-78
2022/11/03 06:10:56;;;;;;;;;;;5.30;99.90;;;;;;4951651;28;19911;-78
2022/11/03 06:13:25;;;;;;;;;;;5.30;99.90;;;;;;4949360;28;19910;-79
2022/11/03 06:15:52;;;;;;;;;;;5.20;99.90;;;;;;4944095;28;19942;-78
2022/11/03 06:18:19;;;;;;;;;;;5.30;99.90;;;;;;4952133;28;19917;-79
2022/11/03 06:20:53;;;;;;;;;;;5.30;99.90;;;;;;4948864;28;19918;-79
2022/11/03 06:23:19;;;;;;;;;;;5.20;99.90;;;;;;4954069;28;20293;-79
2022/11/03 06:25:45;;;;;;;;;;;5.10;99.90;;;;;;4939688;28;19918;-79
2022/11/03 06:28:16;;;;;;;;;;;5.00;99.90;;;;;;4950613;28;19911;-79
2022/11/03 06:30:41;;;;;;;;;;;5.00;99.90;;;;;;4948833;28;19919;-78
2022/11/03 06:33:14;;;;;;;;;;;4.90;99.90;;;;;;4950565;28;19914;-78
2022/11/03 06:35:40;;;;;;;;;;;4.90;99.90;;;;;;4949313;28;19914;-79
2022/11/03 06:38:13;;;;;;;;;;;4.90;99.90;;;;;;4939865;28;20267;-78
2022/11/03 06:40:38;;;;;;;;;;;4.90;99.90;;;;;;4939669;28;19982;-78
2022/11/03 06:43:21;;;;;;;;;;;4.80;99.90;;;;;;4947295;29;19962;-78
2022/11/03 06:45:54;;;;;;;;;;;4.80;99.90;;;;;;4941881;28;19934;-78
2022/11/03 06:48:22;;;;;;;;;;;4.80;99.90;;;;;;4932359;29;19997;-79
2022/11/03 06:50:48;;;;;;;;;;;4.70;99.90;;;;;;4941211;28;19918;-78
2022/11/03 06:53:18;;;;;;;;;;;4.70;99.90;;;;;;4943838;28;19918;-78
2022/11/03 06:55:43;;;;;;;;;;;4.80;99.90;;;;;;4946491;28;20297;-79
2022/11/03 06:58:23;;;;;;;;;;;4.80;99.90;;;;;;4950764;28;19917;-79
2022/11/03 07:00:48;;;;;;;;;;;5.00;99.90;;;;;;4939153;28;19915;-88
2022/11/03 07:03:20;;;;;;;;;;;5.20;99.90;;;;;;4944092;28;19922;-81
2022/11/03 07:05:45;;;;;;;;;;;5.30;99.90;;;;;;4932534;29;20313;-82
2022/11/03 07:08:25;;;;;;;;;;;5.30;99.90;;;;;;4950417;28;19914;-82
2022/11/03 07:11:05;;;;;;;;;;;5.40;99.90;;;;;;4949168;28;20100;-83
2022/11/03 07:13:33;;;;;;;;;;;5.50;99.90;;;;;;4941024;29;19918;-81
2022/11/03 07:15:59;;;;;;;;;;;5.70;99.90;;;;;;4934297;28;19946;-84
2022/11/03 07:18:40;;;;;;;;;;;5.90;99.90;;;;;;4943150;29;20022;-79
2022/11/03 07:21:16;;;;;;;;;;;6.10;99.90;;;;;;4946396;28;19925;-79
2022/11/03 07:23:41;;;;;;;;;;;6.20;99.90;;;;;;4947679;28;19928;-78
2022/11/03 07:26:07;;;;;;;;;;;6.30;99.90;;;;;;4949780;28;19906;-78
2022/11/03 07:28:37;;;;;;;;;;;6.50;99.90;;;;;;4950146;29;19961;-78
2022/11/03 07:31:12;;;;;;;;;;;6.70;99.90;;;;;;4949192;28;19985;-79
2022/11/03 07:33:38;;;;;;;;;;;6.90;99.90;;;;;;4949571;29;19907;-79
2022/11/03 07:36:05;;;;;;;;;;;7.00;99.90;;;;;;4949432;29;19910;-79
2022/11/03 07:38:31;;;;;;;;;;;7.10;99.90;;;;;;4949518;29;19906;-78
2022/11/03 07:40:58;;;;;;;;;;;7.20;99.90;;;;;;4949465;29;20280;-79
2022/11/03 07:43:26;;;;;;;;;;;7.30;99.90;;;;;;4949363;28;20397;-79
2022/11/03 07:45:53;;;;;;;;;;;7.30;99.90;;;;;;4948022;29;19907;-79
2022/11/03 07:48:21;;;;;;;;;;;7.40;99.90;;;;;;4949168;29;19910;-79
2022/11/03 07:50:47;;;;;;;;;;;7.50;99.90;;;;;;4949418;29;19906;-78
2022/11/03 07:53:18;;;;;;;;;;;7.60;99.90;;;;;;4949442;28;19917;-79
2022/11/03 07:55:44;;;;;;;;;;;7.70;99.90;;;;;;4949482;28;19910;-78
2022/11/03 07:58:27;;;;;;;;;;;7.80;99.90;;;;;;4949173;28;20492;-78
2022/11/03 08:00:56;;;;;;;;;;;7.80;99.90;;;;;;4949148;29;19910;-78
2022/11/03 08:03:48;;;;;;;;;;;7.90;99.90;;;;;;4949409;29;19929;-78
2022/11/03 08:06:13;;;;;;;;;;;8.00;99.90;;;;;;4948864;28;19912;-79
2022/11/03 08:08:38;;;;;;;;;;;8.20;99.90;;;;;;4949360;29;19910;-78
2022/11/03 08:11:05;;;;;;;;;;;8.10;99.90;;;;;;4949099;29;19993;-79
2022/11/03 08:13:30;;;;;;;;;;;8.20;99.90;;;;;;4949324;29;20317;-78
2022/11/03 08:15:56;;;;;;;;;;;8.20;99.90;;;;;;4949100;29;19989;-78
2022/11/03 08:18:22;;;;;;;;;;;8.20;99.90;;;;;;4949241;29;19965;-77
2022/11/03 08:20:47;;;;;;;;;;;8.30;99.90;;;;;;4949002;29;19911;-78
2022/11/03 08:23:13;;;;;;;;;;;8.40;99.90;;;;;;4950797;28;19907;-77
2022/11/03 08:25:38;;;;;;;;;;;8.40;99.90;;;;;;4952840;28;19937;-79
2022/11/03 08:28:04;;;;;;;;;;;8.50;99.90;;;;;;4952951;29;19914;-78
2022/11/03 08:30:30;;;;;;;;;;;8.50;99.90;;;;;;4952492;28;20404;-78
2022/11/03 08:32:55;;;;;;;;;;;8.70;99.90;;;;;;4952392;29;19953;-78
2022/11/03 08:35:21;;;;;;;;;;;8.70;99.90;;;;;;4952694;28;19906;-78
2022/11/03 08:37:46;;;;;;;;;;;8.90;99.90;;;;;;4952936;29;19907;-77
2022/11/03 08:40:12;;;;;;;;;;;9.00;99.90;;;;;;4952917;29;20123;-78
2022/11/03 08:42:38;;;;;;;;;;;9.10;99.90;;;;;;4952488;29;19910;-77
2022/11/03 08:45:03;;;;;;;;;;;9.20;99.90;;;;;;4952109;29;20281;-78
2022/11/03 08:47:29;;;;;;;;;;;9.30;99.90;;;;;;4952315;29;19906;-77
2022/11/03 08:49:54;;;;;;;;;;;9.30;99.90;;;;;;4952445;29;19918;-77
2022/11/03 08:52:20;;;;;;;;;;;9.40;99.90;;;;;;4952437;29;19945;-79
2022/11/03 08:54:46;;;;;;;;;;;9.60;99.90;;;;;;4952257;28;19910;-78
2022/11/03 08:57:11;;;;;;;;;;;9.70;99.90;;;;;;4952075;28;19937;-79
2022/11/03 08:59:37;;;;;;;;;;;9.70;99.90;;;;;;4952148;29;20008;-78
2022/11/03 09:02:03;;;;;;;;;;;9.80;99.90;;;;;;4951858;28;19910;-78
2022/11/03 09:04:28;;;;;;;;;;;10.00;99.90;;;;;;4952356;29;19906;-78
2022/11/03 09:06:53;;;;;;;;;;;10.10;99.90;;;;;;4952409;29;19910;-78
2022/11/03 09:09:20;;;;;;;;;;;10.20;99.90;;;;;;4952165;29;19918;-78
2022/11/03 09:11:45;;;;;;;;;;;10.20;99.90;;;;;;4952127;28;19997;-76
2022/11/03 09:14:11;;;;;;;;;;;10.30;99.90;;;;;;4952302;29;20009;-76
2022/11/03 09:16:36;;;;;;;;;;;10.40;99.90;;;;;;4952414;29;19954;-78
2022/11/03 09:19:02;;;;;;;;;;;10.50;99.90;;;;;;4951920;29;20360;-78
2022/11/03 09:21:27;;;;;;;;;;;10.60;99.90;;;;;;4952014;29;20365;-78
2022/11/03 09:23:52;;;;;;;;;;;10.60;99.90;;;;;;4951977;29;19913;-77
2022/11/03 09:26:19;;;;;;;;;;;10.80;99.90;;;;;;4951697;29;19906;-79
2022/11/03 09:28:44;;;;;;;;;;;10.80;99.90;;;;;;4951714;28;20324;-77
2022/11/03 09:31:10;;;;;;;;;;;11.00;99.90;;;;;;4951363;28;19922;-77
2022/11/03 09:33:35;;;;;;;;;;;11.10;99.90;;;;;;4951647;28;19918;-78
2022/11/03 09:36:01;;;;;;;;;;;11.20;99.90;;;;;;4950895;28;19906;-78
2022/11/03 09:38:26;;;;;;;;;;;11.30;99.90;;;;;;4951529;29;19920;-78
2022/11/03 09:40:52;;;;;;;;;;;11.50;99.90;;;;;;4951623;29;20372;-76
2022/11/03 09:43:18;;;;;;;;;;;11.60;99.90;;;;;;4951565;29;20285;-77
2022/11/03 09:45:43;;;;;;;;;;;11.60;99.90;;;;;;4951300;28;20428;-78
2022/11/03 09:48:10;;;;;;;;;;;11.70;99.90;;;;;;4951205;29;19911;-78
2022/11/03 09:50:36;;;;;;;;;;;11.90;99.90;;;;;;4951599;29;20035;-77
2022/11/03 09:53:01;;;;;;;;;;;11.90;99.90;;;;;;4951081;28;20031;-79
2022/11/03 09:55:27;;;;;;;;;;;12.00;99.90;;;;;;4951176;29;20127;-77
2022/11/03 09:58:00;;;;;;;;;;;12.20;99.90;;;;;;4951039;29;19907;-78
2022/11/03 10:00:26;;;;;;;;;;;12.40;99.90;;;;;;4951002;29;20502;-78
2022/11/03 10:02:52;;;;;;;;;;;12.40;98.40;;;;;;4950924;28;20376;-78
2022/11/03 10:05:24;;;;;;;;;;;12.50;98.30;;;;;;4951433;28;19953;-76
2022/11/03 10:08:13;;;;;;;;;;;12.70;97.50;;;;;;4950919;29;19906;-78
2022/11/03 10:10:39;;;;;;;;;;;12.80;97.80;;;;;;4950360;28;19907;-77
2022/11/03 10:13:07;;;;;;;;;;;13.00;97.10;;;;;;4950739;29;19937;-76
2022/11/03 10:15:33;;;;;;;;;;;13.10;95.40;;;;;;4950653;29;19997;-76
2022/11/03 10:17:59;;;;;;;;;;;13.20;95.40;;;;;;4950554;29;20008;-78
2022/11/03 10:20:27;;;;;;;;;;;13.40;94.60;;;;;;4951013;29;19911;-76
2022/11/03 10:22:53;;;;;;;;;;;13.50;94.70;;;;;;4950652;29;19910;-77
2022/11/03 10:25:37;;;;;;;;;;;13.60;94.10;;;;;;4951060;29;19906;-77
2022/11/03 10:28:13;;;;;;;;;;;13.90;93.50;;;;;;4950760;29;19907;-76
2022/11/03 10:30:52;;;;;;;;;;;14.10;92.00;;;;;;4949963;28;20584;-78
2022/11/03 10:33:29;;;;;;;;;;;14.10;91.80;;;;;;4950431;29;19952;-76
2022/11/03 10:35:55;;;;;;;;;;;14.20;91.20;;;;;;4950412;29;19930;-77
2022/11/03 10:38:29;;;;;;;;;;;14.20;91.00;;;;;;4950206;29;19993;-76
2022/11/03 10:40:55;;;;;;;;;;;14.20;90.90;;;;;;4950430;28;19914;-78
2022/11/03 10:43:20;;;;;;;;;;;14.60;90.70;;;;;;4950197;28;20370;-78
2022/11/03 10:45:48;;;;;;;;;;;15.10;89.80;;;;;;4950150;28;19906;-78
2022/11/03 10:48:14;;;;;;;;;;;15.50;87.40;;;;;;4949842;28;19906;-77
2022/11/03 10:50:40;;;;;;;;;;;15.40;85.20;;;;;;4949845;29;20408;-77
2022/11/03 10:53:15;;;;;;;;;;;15.30;85.00;;;;;;4950156;29;19907;-77
2022/11/03 10:55:41;;;;;;;;;;;15.30;86.30;;;;;;4950198;29;20555;-77
2022/11/03 10:58:06;;;;;;;;;;;15.20;86.90;;;;;;4949927;29;19906;-77
2022/11/03 11:00:32;;;;;;;;;;;15.20;86.10;;;;;;4950071;29;20306;-79
2022/11/03 11:02:59;;;;;;;;;;;14.80;88.40;;;;;;4949737;29;19910;-78
2022/11/03 11:05:24;;;;;;;;;;;14.40;88.90;;;;;;4949782;29;20368;-78
2022/11/03 11:07:51;;;;;;;;;;;14.10;89.80;;;;;;4949772;29;19946;-78
2022/11/03 11:10:18;;;;;;;;;;;14.30;90.60;;;;;;4949676;29;19917;-80
2022/11/03 11:13:01;;;;;;;;;;;14.30;90.80;;;;;;4949897;29;19910;-79
2022/11/03 11:15:43;;;;;;;;;;;14.20;91.40;;;;;;4949995;29;20045;-78
2022/11/03 11:18:09;;;;;;;;;;;14.00;90.50;;;;;;4949970;28;19906;-79
2022/11/03 11:20:36;;;;;;;;;;;14.10;91.90;;;;;;4950046;29;20068;-79
2022/11/03 11:23:20;;;;;;;;;;;14.20;91.60;;;;;;4949740;29;20207;-79
2022/11/03 11:26:04;;;;;;;;;;;14.10;91.50;;;;;;4949727;29;19906;-78
2022/11/03 11:28:29;;;;;;;;;;;14.10;92.30;;;;;;4949676;29;19910;-79
2022/11/03 11:30:55;;;;;;;;;;;13.90;91.90;;;;;;4949810;28;20274;-78
2022/11/03 11:33:21;;;;;;;;;;;13.80;92.70;;;;;;4949232;28;20313;-79
2022/11/03 11:35:47;;;;;;;;;;;13.80;92.80;;;;;;4949602;29;19914;-79
2022/11/03 11:38:31;;;;;;;;;;;13.80;92.90;;;;;;4949461;29;19906;-79
2022/11/03 11:40:57;;;;;;;;;;;13.70;92.40;;;;;;4949158;29;20325;-80
2022/11/03 11:43:22;;;;;;;;;;;13.50;93.20;;;;;;4949530;29;19918;-77
2022/11/03 11:46:06;;;;;;;;;;;13.40;93.00;;;;;;4949711;29;19910;-78
2022/11/03 11:48:32;;;;;;;;;;;13.20;93.60;;;;;;4949602;29;20455;-79
2022/11/03 11:50:57;;;;;;;;;;;13.10;94.20;;;;;;4949520;29;20039;-79
2022/11/03 11:53:24;;;;;;;;;;;13.20;94.00;;;;;;4949141;28;19910;-78
2022/11/03 11:55:57;;;;;;;;;;;13.10;94.20;;;;;;4949406;28;19964;-78
2022/11/03 11:58:28;;;;;;;;;;;13.20;94.90;;;;;;4951061;28;20435;-78
2022/11/03 12:00:59;;;;;;;;;;;13.10;94.70;;;;;;4953303;29;19910;-77
2022/11/03 12:03:26;;;;;;;;;;;13.20;94.70;;;;;;4952959;29;19916;-78
2022/11/03 12:05:52;;;;;;;;;;;13.20;95.00;;;;;;4953300;29;19911;-79
2022/11/03 12:08:18;;;;;;;;;;;13.20;95.10;;;;;;4952841;29;19910;-79
2022/11/03 12:10:53;;;;;;;;;;;13.10;95.00;;;;;;4953071;29;19998;-79
2022/11/03 12:13:33;;;;;;;;;;;13.20;94.90;;;;;;4952956;29;19907;-80
2022/11/03 12:15:59;;;;;;;;;;;13.20;95.10;;;;;;4952853;29;20352;-79
2022/11/03 12:18:32;;;;;;;;;;;13.30;95.90;;;;;;4953002;29;19906;-80
2022/11/03 12:20:58;;;;;;;;;;;13.30;95.30;;;;;;4952910;28;19958;-79
2022/11/03 12:23:34;;;;;;;;;;;13.30;95.10;;;;;;4952525;29;19960;-79
2022/11/03 12:26:00;;;;;;;;;;;13.40;95.10;;;;;;4952840;29;20005;-79
2022/11/03 12:28:30;;;;;;;;;;;13.30;94.40;;;;;;4952867;29;19914;-80
2022/11/03 12:30:55;;;;;;;;;;;13.30;95.10;;;;;;4952467;28;20009;-79
2022/11/03 12:33:21;;;;;;;;;;;13.30;94.30;;;;;;4952393;29;19993;-79
2022/11/03 12:35:46;;;;;;;;;;;13.20;94.70;;;;;;4952911;28;19906;-78
2022/11/03 12:38:11;;;;;;;;;;;13.30;95.30;;;;;;4952678;29;19941;-78
2022/11/03 12:40:37;;;;;;;;;;;13.30;93.90;;;;;;4952428;29;20385;-78
2022/11/03 12:43:02;;;;;;;;;;;13.20;94.20;;;;;;4952255;29;19906;-78
2022/11/03 12:45:28;;;;;;;;;;;13.10;94.30;;;;;;4952493;29;19913;-78
2022/11/03 12:47:53;;;;;;;;;;;13.20;94.30;;;;;;4952359;29;19914;-79
2022/11/03 12:50:18;;;;;;;;;;;13.20;95.00;;;;;;4952413;28;19918;-78
2022/11/03 12:52:44;;;;;;;;;;;13.30;94.80;;;;;;4952228;29;19917;-77
2022/11/03 12:55:10;;;;;;;;;;;13.30;93.90;;;;;;4951986;29;20395;-77
2022/11/03 12:57:35;;;;;;;;;;;13.30;93.90;;;;;;4952165;28;19907;-79
2022/11/03 13:00:01;;;;;;;;;;;13.20;94.30;;;;;;4951968;29;19906;-77
2022/11/03 13:02:26;;;;;;;;;;;13.30;94.00;;;;;;4952130;29;20142;-78
2022/11/03 13:04:51;;;;;;;;;;;13.30;93.80;;;;;;4952060;29;19953;-79
2022/11/03 13:07:17;;;;;;;;;;;13.30;93.50;;;;;;4952050;29;19969;-79
2022/11/03 13:09:42;;;;;;;;;;;13.50;94.30;;;;;;4950939;28;19911;-77
2022/11/03 13:14:54;;;;;;;;;;;13.40;93.30;;;;;;4952138;29;19917;-79
2022/11/03 13:17:20;;;;;;;;;;;13.20;93.70;;;;;;4951407;29;20424;-79
2022/11/03 13:19:45;;;;;;;;;;;13.20;93.40;;;;;;4951660;29;19964;-78
2022/11/03 13:22:11;;;;;;;;;;;13.30;93.50;;;;;;4966072;28;19920;-78
2022/11/03 13:24:36;;;;;;;;;;;13.20;93.60;;;;;;4951937;29;19961;-78
2022/11/03 13:27:01;;;;;;;;;;;13.30;93.80;;;;;;4951529;29;20000;-78
2022/11/03 13:29:27;;;;;;;;;;;13.40;93.60;;;;;;4951421;28;20401;-78
2022/11/03 13:31:52;;;;;;;;;;;13.50;93.40;;;;;;4951387;29;20262;-78
2022/11/03 13:34:18;;;;;;;;;;;13.80;93.00;;;;;;4951529;28;19911;-79
2022/11/03 13:36:43;;;;;;;;;;;14.00;92.80;;;;;;4951827;29;19925;-78
2022/11/03 13:39:08;;;;;;;;;;;14.20;92.80;;;;;;4951675;29;19913;-79
2022/11/03 13:41:34;;;;;;;;;;;14.30;91.70;;;;;;4951757;29;19922;-76
2022/11/03 13:43:59;;;;;;;;;;;14.30;91.90;;;;;;4951348;29;19926;-78
2022/11/03 13:46:25;;;;;;;;;;;14.20;91.80;;;;;;4951013;29;20293;-79
2022/11/03 13:48:50;;;;;;;;;;;14.20;92.00;;;;;;4951565;29;19910;-79
2022/11/03 13:51:17;;;;;;;;;;;14.10;92.10;;;;;;4950964;29;19907;-78
2022/11/03 13:53:43;;;;;;;;;;;14.00;92.20;;;;;;4951263;28;19906;-78
2022/11/03 13:56:08;;;;;;;;;;;14.00;93.00;;;;;;4951025;29;19906;-79
2022/11/03 13:58:33;;;;;;;;;;;14.10;93.20;;;;;;4951046;29;20439;-78
2022/11/03 14:00:59;;;;;;;;;;;14.10;92.80;;;;;;4950825;29;19938;-79
2022/11/03 14:03:24;;;;;;;;;;;14.00;93.10;;;;;;4951230;29;19911;-79
2022/11/03 14:05:50;;;;;;;;;;;13.80;93.40;;;;;;4951186;29;19953;-75
2022/11/03 14:08:15;;;;;;;;;;;13.60;93.60;;;;;;4950677;29;20312;-78
2022/11/03 14:10:40;;;;;;;;;;;13.50;94.00;;;;;;4951191;29;19912;-79
2022/11/03 14:13:06;;;;;;;;;;;13.40;95.10;;;;;;4951323;29;19906;-79
2022/11/03 14:15:33;;;;;;;;;;;13.30;95.60;;;;;;4951129;29;19914;-79
2022/11/03 14:17:58;;;;;;;;;;;13.10;96.10;;;;;;4951332;28;19906;-79
2022/11/03 14:20:24;;;;;;;;;;;13.00;96.40;;;;;;4950779;28;20451;-79
2022/11/03 14:22:49;;;;;;;;;;;13.00;97.30;;;;;;4950729;29;19965;-78
2022/11/03 14:25:15;;;;;;;;;;;13.20;96.50;;;;;;4950444;29;19906;-78
2022/11/03 14:27:40;;;;;;;;;;;13.00;96.80;;;;;;4950571;29;19906;-76
2022/11/03 14:30:06;;;;;;;;;;;12.80;97.40;;;;;;4950451;28;19957;-79
2022/11/03 14:32:31;;;;;;;;;;;12.80;98.10;;;;;;4950299;28;19911;-79
2022/11/03 14:34:57;;;;;;;;;;;12.70;98.40;;;;;;4950587;28;20329;-79
2022/11/03 14:37:24;;;;;;;;;;;12.60;98.80;;;;;;4950113;29;19946;-79
2022/11/03 14:39:49;;;;;;;;;;;12.50;99.50;;;;;;4950203;28;20250;-80
2022/11/03 14:42:15;;;;;;;;;;;12.40;99.50;;;;;;4950110;29;19918;-80
2022/11/03 14:44:41;;;;;;;;;;;12.30;99.90;;;;;;4950387;28;19906;-79
2022/11/03 14:47:10;;;;;;;;;;;12.20;99.90;;;;;;4950398;29;20405;-79